Time;durP1;ratioP1;P1;durP2;ratioP2;P2;SDS_P1;SDS_P2;PMS_P1;PMS_P2;Temp;Humidity;BMP_temperature;BMP_pressure;BME280_temperature;BME280_humidity;BME280_pressure;Samples;Min_cycle;Max_cycle;Signal;HPM_P1;HPM_P2
2023/12/10 00:01:14;;;;;;;19.23;3.05;;;;;;;16.64;50.92;99811.22;5074125;28;20035;-61
2023/12/10 00:03:40;;;;;;;10.85;2.65;;;;;;;16.65;51.51;99806.66;5074852;28;20037;-61
2023/12/10 00:06:06;;;;;;;25.23;2.95;;;;;;;16.64;51.30;99807.69;5075201;28;20034;-60
2023/12/10 00:08:32;;;;;;;21.75;3.47;;;;;;;16.63;52.13;99804.16;5074638;28;20407;-60
2023/12/10 00:10:57;;;;;;;17.60;3.15;;;;;;;16.64;51.03;99815.78;5093021;28;20032;-60
2023/12/10 00:13:22;;;;;;;25.58;3.03;;;;;;;16.63;51.00;99815.00;5074982;28;20036;-61
2023/12/10 00:15:48;;;;;;;21.30;3.10;;;;;;;16.64;51.76;99807.69;5059204;28;20032;-61
2023/12/10 00:18:13;;;;;;;18.60;4.00;;;;;;;16.64;50.91;99822.06;5077506;28;20070;-63
2023/12/10 00:20:39;;;;;;;19.85;3.03;;;;;;;16.67;51.65;99816.25;5076462;28;20464;-58
2023/12/10 00:23:07;;;;;;;19.83;2.78;;;;;;;16.68;50.83;99809.84;5094567;28;20085;-60
2023/12/10 00:25:32;;;;;;;14.68;4.03;;;;;;;16.69;50.90;99808.81;5076079;28;20020;-59
2023/12/10 00:27:58;;;;;;;15.48;2.63;;;;;;;16.72;51.77;99819.22;5073981;28;20031;-58
2023/12/10 00:30:23;;;;;;;32.58;4.00;;;;;;;16.70;51.51;99815.88;5074663;28;20031;-58
2023/12/10 00:32:49;;;;;;;30.80;3.58;;;;;;;16.68;50.56;99827.91;5092503;28;20024;-58
2023/12/10 00:35:14;;;;;;;22.48;3.75;;;;;;;16.67;50.69;99837.03;5092349;28;20487;-58
2023/12/10 00:37:40;;;;;;;23.77;4.15;;;;;;;16.65;50.80;99823.72;5076288;28;20118;-58
2023/12/10 00:40:06;;;;;;;26.20;3.42;;;;;;;16.68;51.04;99836.88;5095370;28;20020;-58
2023/12/10 00:42:32;;;;;;;24.90;4.55;;;;;;;16.69;51.11;99833.16;5078412;28;20030;-59
2023/12/10 00:44:58;;;;;;;20.58;2.83;;;;;;;16.69;50.27;99835.84;5096398;28;20495;-58
2023/12/10 00:47:24;;;;;;;25.83;6.07;;;;;;;16.71;51.54;99841.91;5077663;28;20070;-58
2023/12/10 00:49:50;;;;;;;15.00;3.45;;;;;;;16.71;51.37;99850.00;5078241;28;20130;-58
2023/12/10 00:52:15;;;;;;;22.80;3.42;;;;;;;16.71;50.10;99852.72;5050782;28;20115;-58
2023/12/10 00:54:41;;;;;;;25.55;4.03;;;;;;;16.70;50.73;99848.31;5075951;28;20171;-58
2023/12/10 00:57:06;;;;;;;19.00;3.28;;;;;;;16.72;50.63;99851.66;5041058;28;20024;-58
2023/12/10 00:59:31;;;;;;;20.60;3.42;;;;;;;16.71;51.54;99855.41;5075941;28;20020;-58
2023/12/10 01:01:57;;;;;;;10.73;2.17;;;;;;;16.68;51.59;99869.31;5058318;28;20012;-58
2023/12/10 01:04:23;;;;;;;13.07;2.22;;;;;;;16.69;50.87;99857.50;5076067;28;20025;-58
2023/12/10 01:06:49;;;;;;;11.80;3.15;;;;;;;16.72;50.76;99872.50;5058185;28;20029;-58
2023/12/10 01:09:15;;;;;;;20.60;2.78;;;;;;;16.72;50.42;99873.31;5040766;28;20029;-58
2023/12/10 01:11:41;;;;;;;16.73;2.30;;;;;;;16.68;50.89;99871.19;5057957;28;20032;-59
2023/12/10 01:14:06;;;;;;;16.90;3.00;;;;;;;16.72;50.25;99872.50;5057603;28;20500;-58
2023/12/10 01:16:32;;;;;;;15.20;2.40;;;;;;;16.70;50.38;99885.34;5075294;28;20025;-58
2023/12/10 01:18:58;;;;;;;16.45;2.95;;;;;;;16.72;49.94;99888.72;5075564;28;20031;-58
2023/12/10 01:21:26;;;;;;;24.23;3.78;;;;;;;16.65;50.63;99869.69;5040797;28;20020;-58
2023/12/10 01:23:56;;;;;;;16.00;2.95;;;;;;;16.68;50.63;99888.25;5075670;28;20159;-58
2023/12/10 01:26:22;;;;;;;17.13;2.55;;;;;;;16.69;49.70;99887.25;5075676;28;20028;-58
2023/12/10 01:28:47;;;;;;;19.08;2.97;;;;;;;16.70;49.85;99890.75;5040886;28;20033;-59
2023/12/10 01:31:12;;;;;;;17.23;3.05;;;;;;;16.69;49.64;99898.06;5039959;28;20029;-57
2023/12/10 01:33:38;;;;;;;18.98;2.88;;;;;;;16.69;49.93;99913.44;5057345;28;20111;-57
2023/12/10 01:36:03;;;;;;;20.70;2.45;;;;;;;16.67;49.56;99908.19;5057201;28;20039;-58
2023/12/10 01:38:29;;;;;;;30.25;4.82;;;;;;;16.67;49.86;99910.06;5075515;28;20396;-57
2023/12/10 01:40:55;;;;;;;14.70;2.85;;;;;;;16.64;50.23;99914.00;5057268;28;20056;-58
2023/12/10 01:43:20;;;;;;;18.85;2.35;;;;;;;16.67;50.18;99934.41;5040532;28;20032;-59
2023/12/10 01:45:53;;;;;;;9.73;2.67;;;;;;;16.66;50.08;99930.88;5040553;28;20103;-58
2023/12/10 01:48:20;;;;;;;17.35;2.80;;;;;;;16.65;50.27;99918.38;5040835;28;20535;-58
2023/12/10 01:50:46;;;;;;;14.63;3.20;;;;;;;16.67;49.59;99919.03;5040272;28;20033;-58
2023/12/10 01:53:12;;;;;;;14.15;3.05;;;;;;;16.66;50.39;99928.19;5075200;28;20024;-58
2023/12/10 01:55:37;;;;;;;12.77;2.00;;;;;;;16.69;50.14;99926.97;5056907;28;20044;-58
2023/12/10 01:58:06;;;;;;;23.00;2.42;;;;;;;16.68;49.81;99930.69;5057026;28;20086;-58
2023/12/10 02:00:32;;;;;;;18.65;2.67;;;;;;;16.66;49.34;99922.78;5057447;28;20028;-57
2023/12/10 02:03:00;;;;;;;19.33;3.10;;;;;;;16.66;49.26;99928.19;5074837;28;20484;-58
2023/12/10 02:05:25;;;;;;;13.25;2.53;;;;;;;16.66;49.06;99933.59;5056769;28;20037;-58
2023/12/10 02:07:52;;;;;;;15.40;2.90;;;;;;;16.61;49.92;99919.78;5040083;28;20036;-58
2023/12/10 02:10:17;;;;;;;15.05;2.53;;;;;;;16.67;48.95;99940.66;5040149;28;20400;-57
2023/12/10 02:12:44;;;;;;;10.95;1.80;;;;;;;16.66;48.91;99940.84;5074522;28;20028;-58
2023/12/10 02:15:16;;;;;;;15.43;3.78;;;;;;;16.64;49.56;99934.78;5039900;28;20508;-59
2023/12/10 02:17:41;;;;;;;10.93;1.80;;;;;;;16.62;49.00;99948.50;5040188;28;20052;-58
2023/12/10 02:20:09;;;;;;;12.63;2.08;;;;;;;16.66;48.72;99955.22;5039188;28;20056;-58
2023/12/10 02:22:35;;;;;;;10.65;3.05;;;;;;;16.66;49.37;99943.56;5074459;28;20101;-58
2023/12/10 02:25:03;;;;;;;16.13;2.08;;;;;;;16.65;48.66;99958.09;5056961;28;20032;-61
2023/12/10 02:27:29;;;;;;;15.05;1.65;;;;;;;16.66;49.63;99957.09;5056723;28;20056;-58
2023/12/10 02:29:55;;;;;;;13.75;2.60;;;;;;;16.65;49.48;99964.34;5056590;28;20057;-58
2023/12/10 02:32:20;;;;;;;11.48;2.72;;;;;;;16.62;48.74;99962.03;5074834;28;20514;-58
2023/12/10 02:34:46;;;;;;;23.73;2.30;;;;;;;16.61;49.35;99954.94;5040161;28;20029;-58
2023/12/10 02:37:11;;;;;;;14.50;2.85;;;;;;;16.60;49.09;99963.25;5056042;28;20037;-58
2023/12/10 02:39:37;;;;;;;16.63;2.40;;;;;;;16.57;49.08;99967.16;5074168;28;20029;-58
2023/12/10 02:42:04;;;;;;;11.40;2.92;;;;;;;16.56;48.28;99975.44;5056415;28;20078;-58
2023/12/10 02:44:29;;;;;;;18.85;2.70;;;;;;;16.56;48.98;99989.81;5074009;28;20036;-58
2023/12/10 02:46:54;;;;;;;12.15;3.97;;;;;;;16.52;49.23;99984.94;5055998;28;20037;-58
2023/12/10 02:49:20;;;;;;;20.23;1.90;;;;;;;16.46;49.30;99991.94;5055497;28;20101;-57
2023/12/10 02:51:46;;;;;;;18.58;3.25;;;;;;;16.45;48.45;99995.66;5056061;28;20037;-57
2023/12/10 02:54:11;;;;;;;8.93;2.70;;;;;;;16.41;49.13;100002.50;5073735;28;20032;-58
2023/12/10 02:56:37;;;;;;;13.30;1.98;;;;;;;16.32;48.71;100006.31;5055629;28;20051;-58
2023/12/10 02:59:02;;;;;;;15.73;2.60;;;;;;;16.26;48.97;100012.44;5039213;28;20411;-58
2023/12/10 03:01:28;;;;;;;12.38;2.00;;;;;;;16.20;49.12;100010.47;5054840;28;20403;-58
2023/12/10 03:03:54;;;;;;;21.90;2.75;;;;;;;16.10;49.30;100013.47;5073726;28;20471;-58
2023/12/10 03:06:19;;;;;;;10.48;2.45;;;;;;;16.05;49.20;100015.06;5054759;28;20064;-58
2023/12/10 03:08:45;;;;;;;16.45;3.35;;;;;;;16.00;49.25;100012.88;5055829;28;20028;-57
2023/12/10 03:11:10;;;;;;;12.88;2.20;;;;;;;15.92;49.98;100009.41;5073429;28;20068;-58
2023/12/10 03:13:36;;;;;;;13.73;2.60;;;;;;;15.90;50.47;100020.41;5073289;28;20036;-58
2023/12/10 03:16:01;;;;;;;12.45;1.92;;;;;;;15.86;49.05;100016.38;5055190;28;20036;-58
2023/12/10 03:18:27;;;;;;;14.68;3.55;;;;;;;15.85;49.17;100020.13;5073383;28;20150;-58
2023/12/10 03:20:52;;;;;;;12.60;2.35;;;;;;;15.85;50.47;100025.53;5073162;28;20089;-57
2023/12/10 03:23:18;;;;;;;14.13;2.42;;;;;;;15.82;50.34;100041.25;5038689;28;20063;-57
2023/12/10 03:25:43;;;;;;;20.58;2.47;;;;;;;15.79;50.05;100031.66;5055481;28;20024;-58
2023/12/10 03:28:09;;;;;;;7.97;2.28;;;;;;;15.78;50.11;100031.81;5055513;28;20377;-57
2023/12/10 03:30:34;;;;;;;15.82;2.30;;;;;;;15.72;49.76;100031.53;5055121;28;20040;-57
2023/12/10 03:33:00;;;;;;;12.98;3.38;;;;;;;15.73;50.44;100038.63;5038512;28;20041;-57
2023/12/10 03:35:25;;;;;;;12.65;1.95;;;;;;;15.73;49.90;100037.78;5055221;28;20028;-58
2023/12/10 03:37:50;;;;;;;10.93;2.25;;;;;;;15.71;50.76;100034.44;5073593;28;20032;-57
2023/12/10 03:40:16;;;;;;;9.85;1.55;;;;;;;15.70;50.04;100043.53;5055632;28;20032;-57
2023/12/10 03:42:41;;;;;;;10.52;2.00;;;;;;;15.68;49.56;100038.34;5038704;28;20389;-58
2023/12/10 03:45:07;;;;;;;11.50;2.38;;;;;;;15.69;50.42;100048.09;5055733;28;20508;-57
2023/12/10 03:47:34;;;;;;;10.63;2.10;;;;;;;15.68;50.67;100046.44;5073058;28;20037;-61
2023/12/10 03:49:59;;;;;;;11.18;2.22;;;;;;;15.72;49.59;100041.50;5054806;28;20041;-57
2023/12/10 03:52:24;;;;;;;18.80;2.28;;;;;;;15.73;49.70;100049.44;5055024;28;20102;-57
2023/12/10 03:54:50;;;;;;;18.90;1.80;;;;;;;15.77;50.11;100059.88;5053821;28;20032;-57
2023/12/10 03:57:15;;;;;;;12.77;2.42;;;;;;;15.79;50.37;100044.31;5054776;28;20493;-57
2023/12/10 03:59:40;;;;;;;15.07;3.05;;;;;;;15.79;50.89;100042.47;5054774;28;20040;-58
2023/12/10 04:02:06;;;;;;;10.88;2.80;;;;;;;15.79;50.31;100047.03;5055028;28;20028;-57
2023/12/10 04:04:31;;;;;;;10.00;2.33;;;;;;;15.78;50.09;100053.44;5072710;28;20054;-58
2023/12/10 04:06:57;;;;;;;10.57;1.98;;;;;;;15.78;49.79;100046.16;5055111;28;20028;-57
2023/12/10 04:09:22;;;;;;;12.35;2.03;;;;;;;15.82;49.54;100062.84;5072678;28;20387;-58
2023/12/10 04:11:47;;;;;;;16.83;2.17;;;;;;;15.83;50.65;100061.84;5055403;28;20033;-58
2023/12/10 04:14:13;;;;;;;9.98;1.95;;;;;;;15.87;49.54;100063.16;5077021;28;20408;-57
2023/12/10 04:16:39;;;;;;;20.88;2.42;;;;;;;15.89;50.38;100047.59;5042114;28;20029;-57
2023/12/10 04:19:04;;;;;;;10.80;2.80;;;;;;;15.93;49.69;100065.97;5058822;28;20389;-57
2023/12/10 04:21:30;;;;;;;12.32;2.38;;;;;;;15.96;49.82;100053.97;5076652;28;20040;-57
2023/12/10 04:23:55;;;;;;;14.90;2.15;;;;;;;15.97;49.46;100066.47;5058556;28;20177;-57
2023/12/10 04:26:21;;;;;;;14.63;2.05;;;;;;;15.97;50.52;100066.47;5076510;28;20029;-57
2023/12/10 04:28:48;;;;;;;13.70;1.73;;;;;;;16.01;50.23;100070.44;5058341;28;20032;-58
2023/12/10 04:31:14;;;;;;;7.70;2.13;;;;;;;16.03;48.65;100061.13;5076543;28;20082;-58
2023/12/10 04:33:42;;;;;;;16.98;2.53;;;;;;;16.04;49.28;100076.34;5076427;28;20122;-57
2023/12/10 04:36:08;;;;;;;14.05;2.97;;;;;;;16.08;49.29;100095.72;5076456;28;20035;-58
2023/12/10 04:38:33;;;;;;;10.68;2.22;;;;;;;16.09;49.43;100075.78;5058749;28;20400;-58
2023/12/10 04:40:59;;;;;;;12.68;2.30;;;;;;;16.07;49.48;100077.84;5077060;28;20060;-57
2023/12/10 04:43:25;;;;;;;14.00;2.00;;;;;;;16.12;48.92;100080.81;5076776;28;20028;-58
2023/12/10 04:45:51;;;;;;;11.27;2.65;;;;;;;16.16;48.65;100099.16;5041755;28;20518;-58
2023/12/10 04:48:16;;;;;;;11.70;1.88;;;;;;;16.18;49.58;100080.09;5076266;28;20047;-58
2023/12/10 04:50:42;;;;;;;16.60;2.15;;;;;;;16.15;49.82;100092.09;5075855;28;20037;-57
2023/12/10 04:53:07;;;;;;;7.43;1.30;;;;;;;16.23;48.58;100104.69;5058196;28;20032;-58
2023/12/10 04:55:32;;;;;;;14.32;2.30;;;;;;;16.24;49.31;100122.59;5076059;28;20115;-58
2023/12/10 04:57:58;;;;;;;11.30;2.33;;;;;;;16.25;47.79;100126.97;5058393;28;20024;-58
2023/12/10 05:00:24;;;;;;;15.13;1.45;;;;;;;16.24;48.25;100122.59;5077084;28;20488;-63
2023/12/10 05:02:49;;;;;;;13.15;2.10;;;;;;;16.26;48.27;100137.59;5059855;28;20468;-58
2023/12/10 05:05:15;;;;;;;9.43;1.58;;;;;;;16.28;48.26;100132.00;5076117;28;20430;-58
2023/12/10 05:07:41;;;;;;;11.52;1.80;;;;;;;16.28;48.02;100132.00;5075929;28;20032;-58
2023/12/10 05:10:06;;;;;;;11.63;2.33;;;;;;;16.31;48.90;100139.75;5076061;28;20035;-58
2023/12/10 05:12:32;;;;;;;5.65;1.95;;;;;;;16.30;48.64;100133.50;5075521;28;20025;-58
2023/12/10 05:14:57;;;;;;;14.18;2.95;;;;;;;16.29;48.13;100152.63;5041003;28;20028;-58
2023/12/10 05:17:22;;;;;;;11.15;1.35;;;;;;;16.29;48.50;100152.63;5057693;28;20039;-58
2023/12/10 05:19:48;;;;;;;12.50;1.70;;;;;;;16.31;48.33;100137.03;5057856;28;20036;-58
2023/12/10 05:22:13;;;;;;;10.43;1.73;;;;;;;16.34;49.08;100133.97;5057619;28;20116;-58
2023/12/10 05:24:40;;;;;;;8.32;1.90;;;;;;;16.33;48.39;100146.66;5074258;28;20032;-58
2023/12/10 05:27:06;;;;;;;11.48;2.10;;;;;;;16.35;47.81;100148.34;5075341;28;20463;-58
2023/12/10 05:29:31;;;;;;;9.60;2.13;;;;;;;16.36;47.57;100158.97;5075670;28;20111;-59
2023/12/10 05:31:56;;;;;;;13.60;1.95;;;;;;;16.36;48.36;100158.97;5075489;28;20036;-58
2023/12/10 05:34:22;;;;;;;8.43;2.00;;;;;;;16.37;48.13;100171.47;5075413;28;20496;-58
2023/12/10 05:36:47;;;;;;;9.15;2.30;;;;;;;16.38;48.00;100178.56;5057682;28;20111;-58
2023/12/10 05:39:13;;;;;;;13.00;2.67;;;;;;;16.41;47.95;100163.84;5057361;28;20063;-58
2023/12/10 05:41:40;;;;;;;16.67;2.88;;;;;;;16.46;47.64;100177.63;5057163;28;20112;-58
2023/12/10 05:44:05;;;;;;;14.07;2.17;;;;;;;16.45;47.45;100195.72;5057348;28;20573;-58
2023/12/10 05:46:31;;;;;;;20.00;2.25;;;;;;;16.45;47.60;100197.56;5057171;28;20112;-58
2023/12/10 05:48:56;;;;;;;18.55;2.55;;;;;;;16.45;47.36;100201.13;5074579;28;20072;-58
2023/12/10 05:51:21;;;;;;;13.90;2.33;;;;;;;16.46;47.57;100197.41;5057007;28;20558;-58
2023/12/10 05:53:47;;;;;;;18.75;2.35;;;;;;;16.52;46.83;100218.31;5040511;28;20028;-58
2023/12/10 05:56:12;;;;;;;12.80;1.67;;;;;;;16.50;47.03;100214.94;5057020;28;20048;-58
2023/12/10 05:58:37;;;;;;;8.95;2.78;;;;;;;16.51;47.31;100215.78;5075008;28;20622;-58
2023/12/10 06:01:04;;;;;;;10.40;2.85;;;;;;;16.49;47.31;100207.88;5056947;28;20040;-58
2023/12/10 06:03:30;;;;;;;9.77;2.30;;;;;;;16.44;46.87;100212.97;5081341;28;20036;-58
2023/12/10 06:05:56;;;;;;;14.20;3.08;;;;;;;16.44;47.53;100222.94;5076913;28;20025;-58
2023/12/10 06:08:21;;;;;;;12.45;2.05;;;;;;;16.48;46.72;100232.34;5060267;28;20522;-61
2023/12/10 06:10:47;;;;;;;10.05;2.00;;;;;;;16.46;47.20;100234.41;5094788;28;20036;-61
2023/12/10 06:13:12;;;;;;;15.90;3.08;;;;;;;16.47;47.13;100247.72;5076791;28;20036;-61
2023/12/10 06:15:37;;;;;;;14.55;2.35;;;;;;;16.46;46.21;100235.25;5059871;28;20056;-60
2023/12/10 06:18:03;;;;;;;14.43;2.60;;;;;;;16.45;46.97;100238.97;5094742;28;20441;-61
2023/12/10 06:20:29;;;;;;;13.15;3.38;;;;;;;16.47;46.95;100253.13;5094609;28;20436;-60
2023/12/10 06:22:54;;;;;;;10.80;1.75;;;;;;;16.48;47.46;100265.66;5059936;28;20487;-61
2023/12/10 06:25:19;;;;;;;20.65;3.25;;;;;;;16.46;47.55;100267.69;5076443;28;20511;-60
2023/12/10 06:27:45;;;;;;;15.43;2.60;;;;;;;16.46;47.18;100273.09;5094597;28;20039;-62
2023/12/10 06:30:11;;;;;;;14.88;2.03;;;;;;;16.47;46.89;100276.66;5058742;28;20028;-60
2023/12/10 06:32:36;;;;;;;19.98;2.53;;;;;;;16.48;47.39;100289.97;5075800;28;20047;-61
2023/12/10 06:35:02;;;;;;;11.43;2.58;;;;;;;16.48;46.34;100298.09;5076177;28;20035;-61
2023/12/10 06:37:27;;;;;;;33.45;3.00;;;;;;;16.50;46.87;100300.63;5076131;28;20054;-61
2023/12/10 06:39:54;;;;;;;19.15;2.72;;;;;;;16.51;46.53;100305.84;5076192;28;20032;-60
2023/12/10 06:42:19;;;;;;;11.75;3.08;;;;;;;16.53;45.99;100311.06;5076165;28;20032;-60
2023/12/10 06:44:44;;;;;;;19.95;3.05;;;;;;;16.52;46.92;100312.94;5094332;28;20039;-61
2023/12/10 06:47:11;;;;;;;13.32;2.30;;;;;;;16.51;46.70;100288.78;5094029;28;20036;-61
2023/12/10 06:49:36;;;;;;;14.95;3.25;;;;;;;16.53;45.96;100308.34;5094158;28;20055;-61
2023/12/10 06:52:02;;;;;;;9.93;2.05;;;;;;;16.53;47.27;100301.13;5076019;28;20036;-61
2023/12/10 06:54:27;;;;;;;14.00;2.00;;;;;;;16.55;46.61;100298.25;5094091;28;20422;-61
2023/12/10 06:56:52;;;;;;;12.48;1.33;;;;;;;16.54;47.50;100302.81;5059140;28;20028;-61
2023/12/10 06:59:18;;;;;;;12.13;2.30;;;;;;;16.52;47.06;100318.34;5075757;28;20499;-60
2023/12/10 07:01:43;;;;;;;9.75;2.05;;;;;;;16.51;46.73;100322.06;5075832;28;20036;-61
2023/12/10 07:04:08;;;;;;;17.88;2.45;;;;;;;16.54;47.39;100340.66;5075955;28;20032;-60
2023/12/10 07:06:34;;;;;;;19.33;2.85;;;;;;;16.53;46.46;100338.97;5094178;28;20050;-60
2023/12/10 07:09:00;;;;;;;9.30;2.58;;;;;;;16.52;46.55;100341.84;5075729;28;20036;-61
2023/12/10 07:11:26;;;;;;;11.57;2.47;;;;;;;16.55;47.04;100344.22;5075372;28;20039;-61
2023/12/10 07:13:53;;;;;;;21.35;3.47;;;;;;;16.51;46.54;100332.88;5075449;28;20495;-61
2023/12/10 07:16:19;;;;;;;13.95;2.25;;;;;;;16.55;46.64;100364.00;5075879;28;20115;-61
2023/12/10 07:18:44;;;;;;;14.20;2.15;;;;;;;16.54;46.68;100351.50;5075250;28;20063;-61
2023/12/10 07:21:09;;;;;;;18.77;2.63;;;;;;;16.54;47.41;100362.31;5075427;28;20028;-59
2023/12/10 07:23:36;;;;;;;12.95;2.17;;;;;;;16.54;46.67;100361.47;5092989;28;20048;-59
2023/12/10 07:26:01;;;;;;;11.27;1.88;;;;;;;16.54;46.91;100366.88;5093590;28;20066;-58
2023/12/10 07:28:27;;;;;;;15.98;2.72;;;;;;;16.53;45.82;100370.53;5075219;28;20016;-58
2023/12/10 07:30:53;;;;;;;9.85;2.03;;;;;;;16.49;46.29;100386.31;5075103;28;20523;-58
2023/12/10 07:33:18;;;;;;;14.35;2.22;;;;;;;16.47;46.39;100390.22;5093338;28;20023;-58
2023/12/10 07:35:43;;;;;;;15.52;3.30;;;;;;;16.43;46.20;100376.19;5075153;28;20020;-59
2023/12/10 07:38:09;;;;;;;14.35;1.70;;;;;;;16.40;46.82;100400.88;5093288;28;20020;-58
2023/12/10 07:40:34;;;;;;;8.02;1.58;;;;;;;16.39;46.65;100401.06;5093490;28;20357;-58
2023/12/10 07:42:59;;;;;;;9.70;2.03;;;;;;;16.39;46.56;100401.88;5093174;28;20054;-58
2023/12/10 07:45:25;;;;;;;11.23;2.17;;;;;;;16.35;46.66;100408.69;5075016;28;20077;-58
2023/12/10 07:47:51;;;;;;;15.45;1.88;;;;;;;16.30;46.82;100408.38;5092418;28;20096;-58
2023/12/10 07:50:16;;;;;;;11.55;2.33;;;;;;;16.29;46.79;100415.63;5092915;28;20521;-58
2023/12/10 07:52:41;;;;;;;15.75;1.90;;;;;;;16.29;46.87;100429.16;5074821;28;20028;-58
2023/12/10 07:55:07;;;;;;;13.23;1.90;;;;;;;16.29;46.74;100434.56;5058402;28;20468;-57
2023/12/10 07:57:32;;;;;;;14.00;2.50;;;;;;;16.28;46.28;100442.81;5092847;28;20016;-58
2023/12/10 07:59:58;;;;;;;14.60;1.95;;;;;;;16.24;46.59;100445.06;5074993;28;20107;-58
2023/12/10 08:02:23;;;;;;;12.90;1.98;;;;;;;16.25;46.62;100448.59;5092929;28;20078;-58
2023/12/10 08:04:49;;;;;;;14.43;3.45;;;;;;;16.22;47.11;100448.94;5074904;28;20129;-58
2023/12/10 08:07:15;;;;;;;16.55;1.77;;;;;;;16.26;46.28;100466.50;5074920;28;20016;-58
2023/12/10 08:09:40;;;;;;;15.52;2.22;;;;;;;16.28;47.17;100467.16;5074915;28;20055;-59
2023/12/10 08:12:06;;;;;;;14.55;1.83;;;;;;;16.30;46.35;100462.44;5058012;28;20035;-59
2023/12/10 08:14:31;;;;;;;14.18;2.33;;;;;;;16.30;46.83;100474.06;5092826;28;20055;-59
2023/12/10 08:16:56;;;;;;;21.77;2.72;;;;;;;16.33;46.26;100472.06;5092424;28;20020;-59
2023/12/10 08:19:22;;;;;;;20.30;2.67;;;;;;;16.34;46.19;100490.78;5074746;28;20107;-58
2023/12/10 08:21:47;;;;;;;23.88;3.40;;;;;;;16.37;46.99;100484.19;5074807;28;20031;-58
2023/12/10 08:24:13;;;;;;;16.15;2.38;;;;;;;16.37;47.01;100482.34;5074745;28;20016;-58
2023/12/10 08:26:38;;;;;;;7.15;2.65;;;;;;;16.43;46.49;100489.75;5092519;28;20103;-58
2023/12/10 08:29:03;;;;;;;10.75;1.90;;;;;;;16.48;47.19;100494.63;5074861;28;20490;-58
2023/12/10 08:31:29;;;;;;;17.33;1.80;;;;;;;16.48;46.95;100487.34;5092864;28;20068;-59
2023/12/10 08:33:54;;;;;;;9.85;2.13;;;;;;;16.51;47.52;100486.16;5074746;28;20028;-58
2023/12/10 08:36:20;;;;;;;14.68;2.53;;;;;;;16.52;46.37;100477.88;5074331;28;20479;-58
2023/12/10 08:38:45;;;;;;;19.23;2.40;;;;;;;16.56;46.49;100476.53;5074316;28;20062;-58
2023/12/10 08:41:10;;;;;;;12.35;2.47;;;;;;;16.58;46.98;100479.91;5092273;28;20035;-58
2023/12/10 08:43:37;;;;;;;10.23;1.88;;;;;;;16.62;46.38;100491.22;5092557;28;20361;-58
2023/12/10 08:46:02;;;;;;;14.43;3.53;;;;;;;16.67;45.95;100494.22;5092508;28;20046;-58
2023/12/10 08:48:28;;;;;;;11.02;2.13;;;;;;;16.67;46.28;100492.38;5089485;28;20515;-57
2023/12/10 08:50:54;;;;;;;10.00;1.75;;;;;;;16.70;46.63;100499.28;5072459;28;20428;-57
2023/12/10 08:53:20;;;;;;;16.63;3.28;;;;;;;16.70;46.28;100505.53;5072406;28;20043;-58
2023/12/10 08:55:46;;;;;;;13.38;3.60;;;;;;;16.78;47.07;100494.69;5072292;28;20040;-58
2023/12/10 08:58:11;;;;;;;11.35;2.67;;;;;;;16.85;46.81;100508.34;5055651;28;20466;-58
2023/12/10 09:00:37;;;;;;;12.20;2.55;;;;;;;16.88;47.01;100522.38;5058003;28;20024;-58
2023/12/10 09:03:02;;;;;;;11.48;2.55;;;;;;;16.93;47.01;100518.28;5075933;28;20024;-58
2023/12/10 09:05:27;;;;;;;10.68;2.08;;;;;;;16.88;47.10;100511.53;5075810;28;20032;-57
2023/12/10 09:07:53;;;;;;;12.60;2.78;;;;;;;16.99;46.61;100522.97;5041281;28;20032;-58
2023/12/10 09:10:18;;;;;;;18.15;2.40;;;;;;;16.99;46.87;100539.22;5057765;28;20036;-58
2023/12/10 09:12:44;;;;;;;15.40;2.50;;;;;;;17.00;46.55;100527.38;5075527;28;20150;-58
2023/12/10 09:15:09;;;;;;;13.70;2.75;;;;;;;17.04;46.96;100528.69;5057969;28;20035;-58
2023/12/10 09:17:35;;;;;;;18.65;2.85;;;;;;;17.12;46.63;100539.47;5045181;28;20120;-58
2023/12/10 09:20:00;;;;;;;12.77;2.85;;;;;;;17.13;46.55;100533.03;5035578;28;20053;-58
2023/12/10 09:22:25;;;;;;;12.10;3.58;;;;;;;17.17;47.14;100535.19;5035581;28;20068;-58
2023/12/10 09:24:51;;;;;;;7.18;3.45;;;;;;;17.20;47.09;100525.88;5035532;28;20061;-58
2023/12/10 09:27:16;;;;;;;15.13;2.53;;;;;;;17.30;46.63;100531.91;5035638;28;20029;-59
2023/12/10 09:29:42;;;;;;;25.33;2.67;;;;;;;17.33;46.65;100536.97;5001226;28;20030;-58
2023/12/10 09:32:12;;;;;;;18.52;2.70;;;;;;;17.48;46.76;100529.75;5035371;28;20036;-59
2023/12/10 09:34:39;;;;;;;8.70;1.98;;;;;;;17.60;46.97;100539.16;5018230;28;20060;-58
2023/12/10 09:37:04;;;;;;;23.23;3.15;;;;;;;17.67;46.95;100544.72;5018741;28;20034;-62
2023/12/10 09:39:31;;;;;;;11.52;1.92;;;;;;;17.72;46.84;100543.13;5018416;28;20056;-58
2023/12/10 09:41:56;;;;;;;15.40;2.03;;;;;;;17.78;46.82;100536.16;5001584;28;20037;-58
2023/12/10 09:44:22;;;;;;;20.15;2.90;;;;;;;17.92;46.45;100527.22;5034884;28;20037;-57
2023/12/10 09:46:48;;;;;;;22.40;4.15;;;;;;;18.10;46.21;100524.97;5017350;28;20034;-57
2023/12/10 09:49:14;;;;;;;17.15;3.55;;;;;;;18.26;45.80;100521.25;5043588;28;20068;-57
2023/12/10 09:51:39;;;;;;;18.88;3.47;;;;;;;18.37;46.39;100523.53;5037325;28;20497;-58
2023/12/10 09:54:05;;;;;;;18.73;3.58;;;;;;;18.32;46.33;100517.78;5036337;28;20051;-57
2023/12/10 09:56:31;;;;;;;14.90;2.92;;;;;;;18.67;45.73;100522.50;5053715;28;20152;-57
2023/12/10 09:58:56;;;;;;;12.10;3.60;;;;;;;19.04;45.26;100514.19;5053992;28;20048;-57
2023/12/10 10:01:21;;;;;;;17.77;3.25;;;;;;;19.39;45.57;100515.22;5055040;28;20029;-57
2023/12/10 10:03:47;;;;;;;16.95;2.72;;;;;;;19.60;45.36;100515.19;5020506;28;20032;-56
2023/12/10 10:06:12;;;;;;;14.50;2.97;;;;;;;19.62;45.63;100512.31;5036375;28;20025;-58
2023/12/10 10:08:37;;;;;;;10.75;2.33;;;;;;;19.59;45.74;100526.28;5054559;28;20037;-58
2023/12/10 10:11:03;;;;;;;12.10;3.00;;;;;;;19.74;44.56;100521.59;5053751;28;20060;-58
2023/12/10 10:13:29;;;;;;;17.08;2.97;;;;;;;20.02;45.29;100525.16;5054459;28;20033;-58
2023/12/10 10:15:54;;;;;;;17.30;2.05;;;;;;;20.18;45.04;100524.06;5036551;28;20083;-57
2023/12/10 10:18:20;;;;;;;15.23;3.50;;;;;;;20.38;43.72;100524.22;5054816;28;20083;-57
2023/12/10 10:20:45;;;;;;;17.30;2.85;;;;;;;20.51;43.58;100513.41;5036517;28;20584;-57
2023/12/10 10:23:11;;;;;;;21.13;3.30;;;;;;;20.73;43.71;100514.97;5036525;28;20033;-59
2023/12/10 10:25:39;;;;;;;14.60;2.72;;;;;;;20.94;43.50;100509.38;5054211;28;20029;-59
2023/12/10 10:28:08;;;;;;;16.17;2.78;;;;;;;21.01;44.16;100499.38;5054048;28;20037;-59
2023/12/10 10:30:33;;;;;;;16.15;2.75;;;;;;;21.24;44.08;100499.91;5019835;28;20396;-59
2023/12/10 10:32:59;;;;;;;18.88;2.88;;;;;;;21.41;43.29;100498.44;5054179;28;20025;-58
2023/12/10 10:35:25;;;;;;;14.07;2.50;;;;;;;21.60;43.16;100490.50;5054126;28;20075;-58
2023/12/10 10:37:51;;;;;;;19.70;3.28;;;;;;;21.48;43.90;100490.28;5035845;28;20048;-59
2023/12/10 10:40:16;;;;;;;23.60;4.75;;;;;;;21.35;43.70;100485.66;5019545;28;20033;-58
2023/12/10 10:42:43;;;;;;;21.77;3.20;;;;;;;21.09;44.28;100480.16;5035878;28;20139;-58
2023/12/10 10:45:09;;;;;;;17.85;2.83;;;;;;;20.86;44.15;100490.50;5035728;28;20515;-60
2023/12/10 10:47:35;;;;;;;12.50;4.15;;;;;;;20.64;43.79;100503.41;5035759;28;20053;-60
2023/12/10 10:50:02;;;;;;;15.45;2.33;;;;;;;20.36;45.08;100496.34;5053524;28;20049;-58
2023/12/10 10:52:29;;;;;;;17.83;3.95;;;;;;;20.13;45.18;100489.28;5036058;28;20029;-57
2023/12/10 10:54:55;;;;;;;16.25;2.72;;;;;;;20.00;44.29;100502.78;5035682;28;20056;-60
2023/12/10 10:57:31;;;;;;;15.45;3.17;;;;;;;19.86;43.84;100506.44;5035871;28;20106;-60
2023/12/10 10:59:57;;;;;;;10.18;2.72;;;;;;;19.75;44.49;100512.41;5019355;28;20032;-60
2023/12/10 11:02:22;;;;;;;12.82;2.85;;;;;;;19.62;44.97;100496.00;5019286;28;20035;-59
2023/12/10 11:04:49;;;;;;;11.38;2.67;;;;;;;19.51;44.67;100499.25;5020445;28;20037;-60
2023/12/10 11:07:15;;;;;;;17.70;2.78;;;;;;;19.33;44.91;100505.09;5073450;28;20040;-60
2023/12/10 11:10:01;;;;;;;14.35;4.47;;;;;;;19.22;45.24;100504.75;5089481;28;20047;-57
2023/12/10 11:12:39;;;;;;;19.70;3.05;;;;;;;19.07;45.38;100504.81;5055436;28;20565;-58